Terminal Aerodrome Forecast
Issued by NWS Knoxville/Tri Cities, TN

Home | Current Version | Previous Version | Text Only | Print | Product List | Glossary On
Versions: 1 2 3 4 5 6 7 8 9 10 11 12 13 14 15 16
000
FTUS44 KMRX 281720
TAFTRI
TAF
KTRI 281720Z 2818/2918 27009KT P6SM OVC050
     FM290100 VRB03KT P6SM OVC030
     FM290800 VRB02KT 2SM BR SCT002 OVC150
     FM291400 03002KT P6SM BKN150=

USA.gov is the U.S. government's official web portal to all federal, state and local government web resources and services.